Time;durP1;ratioP1;P1;durP2;ratioP2;P2;SDS_P1;SDS_P2;PMS_P1;PMS_P2;Temp;Humidity;BMP_temperature;BMP_pressure;BME280_temperature;BME280_humidity;BME280_pressure;Samples;Min_cycle;Max_cycle;Signal;HPM_P1;HPM_P2
2023/09/30 00:01:21;;;;;;;;;2.67;2.67;;;;;17.70;57.21;102138.03;4951023;28;45386;-69
2023/09/30 00:03:47;;;;;;;;;6.67;4.00;;;;;17.66;57.16;102147.41;4944802;28;45570;-69
2023/09/30 00:06:12;;;;;;;;;5.00;3.33;;;;;17.67;57.59;102157.16;4953120;28;45491;-67
2023/09/30 00:08:39;;;;;;;;;7.33;4.00;;;;;17.73;57.57;102163.78;4947820;28;52450;-68
2023/09/30 00:11:05;;;;;;;;;3.33;3.00;;;;;17.74;57.51;102169.00;4960892;28;45472;-67
2023/09/30 00:13:30;;;;;;;;;3.33;1.33;;;;;17.77;56.81;102162.47;4948200;28;45485;-68
2023/09/30 00:15:56;;;;;;;;;11.00;5.00;;;;;17.76;57.40;102166.16;4953770;28;45515;-69
2023/09/30 00:18:21;;;;;;;;;3.75;3.00;;;;;17.68;57.48;102150.81;4948157;28;66939;-68
2023/09/30 00:20:47;;;;;;;;;4.00;4.00;;;;;17.59;57.32;102140.94;4960795;28;45484;-68
2023/09/30 00:23:12;;;;;;;;;3.50;3.00;;;;;17.70;57.61;102169.47;4949009;28;45529;-68
2023/09/30 00:25:39;;;;;;;;;1.75;1.25;;;;;17.69;57.73;102163.25;4953639;28;45430;-68
2023/09/30 00:28:04;;;;;;;;;2.25;2.25;;;;;17.65;57.63;102169.94;4950428;28;46703;-68
2023/09/30 00:30:30;;;;;;;;;5.00;3.00;;;;;17.52;58.17;102145.25;4949970;28;45644;-68
2023/09/30 00:32:55;;;;;;;;;4.75;2.25;;;;;17.20;58.20;102114.38;4944432;28;45613;-69
2023/09/30 00:35:20;;;;;;;;;2.00;2.00;;;;;17.39;58.57;102142.09;4948750;28;45491;-68
2023/09/30 00:37:46;;;;;;;;;4.50;4.25;;;;;17.44;58.45;102158.66;4945008;28;46149;-68
2023/09/30 00:40:11;;;;;;;;;4.33;3.00;;;;;17.45;58.54;102166.56;4953902;28;51494;-67
2023/09/30 00:42:41;;;;;;;;;6.00;4.33;;;;;17.49;58.43;102184.06;4946580;28;45769;-67
2023/09/30 00:45:08;;;;;;;;;2.00;2.00;;;;;17.48;58.68;102181.53;4953138;28;45375;-68
2023/09/30 00:47:35;;;;;;;;;4.50;3.00;;;;;17.40;59.15;102152.72;4947663;28;45834;-68
2023/09/30 00:50:03;;;;;;;;;4.33;3.00;;;;;17.33;59.28;102141.72;4952576;28;45568;-73
2023/09/30 00:52:31;;;;;;;;;2.33;1.33;;;;;17.40;58.98;102157.25;4947582;28;45509;-68
2023/09/30 00:54:57;;;;;;;;;2.67;2.67;;;;;17.32;58.89;102166.09;4952566;28;45432;-68
2023/09/30 00:57:23;;;;;;;;;2.00;2.00;;;;;17.38;59.65;102151.19;4947510;28;46355;-68
2023/09/30 00:59:50;;;;;;;;;2.67;2.67;;;;;17.44;59.12;102147.88;4951095;28;45405;-68
2023/09/30 01:02:17;;;;;;;;;6.00;3.00;;;;;17.16;59.10;102094.19;4949230;28;45336;-68
2023/09/30 01:04:44;;;;;;;;;2.75;2.75;;;;;16.54;59.03;101977.75;4950641;28;45280;-68
2023/09/30 01:07:09;;;;;;;;;6.00;4.00;;;;;17.15;58.81;102083.59;4932468;28;49091;-69
2023/09/30 01:09:36;;;;;;;;;2.25;1.50;;;;;17.51;58.82;102157.03;4943109;28;45395;-68
2023/09/30 01:12:02;;;;;;;;;3.25;3.25;;;;;17.46;59.12;102162.88;4951033;28;45491;-69
2023/09/30 01:14:32;;;;;;;;;5.33;4.00;;;;;17.50;58.81;102174.16;4942017;28;45553;-68
2023/09/30 01:16:57;;;;;;;;;4.00;3.25;;;;;17.48;58.86;102170.78;4943957;28;46653;-68
2023/09/30 01:19:24;;;;;;;;;3.33;3.33;;;;;17.45;59.13;102154.97;4954968;28;45352;-67
2023/09/30 01:21:56;;;;;;;;;2.75;2.75;;;;;17.44;58.97;102164.88;4957394;28;46812;-69
2023/09/30 01:24:21;;;;;;;;;4.25;3.50;;;;;17.47;58.76;102185.22;4949237;28;45359;-69
2023/09/30 01:26:47;;;;;;;;;4.00;4.00;;;;;17.33;58.99;102167.78;4947197;28;47857;-68
2023/09/30 01:29:12;;;;;;;;;3.00;3.00;;;;;17.41;58.86;102180.44;4949989;28;45445;-70
2023/09/30 01:31:38;;;;;;;;;2.67;1.67;;;;;17.38;59.11;102181.59;4951850;28;45295;-69
2023/09/30 01:34:04;;;;;;;;;5.00;5.00;;;;;17.19;59.14;102138.72;4939903;28;45450;-68
2023/09/30 01:36:29;;;;;;;;;3.00;3.00;;;;;17.27;59.11;102161.19;4956265;28;45481;-67
2023/09/30 01:38:55;;;;;;;;;2.75;2.75;;;;;17.30;59.38;102155.50;4946508;28;45409;-68
2023/09/30 01:41:20;;;;;;;;;3.25;3.25;;;;;17.33;59.26;102173.16;4954337;28;45578;-69
2023/09/30 01:43:46;;;;;;;;;6.67;3.00;;;;;17.16;59.73;102139.88;4939513;28;45765;-68
2023/09/30 01:46:12;;;;;;;;;4.00;3.00;;;;;17.24;60.24;102145.38;4953777;28;46775;-68
2023/09/30 01:48:37;;;;;;;;;6.67;3.00;;;;;17.25;59.80;102149.75;4940588;28;45521;-69
2023/09/30 01:51:03;;;;;;;;;4.00;4.00;;;;;17.15;59.87;102111.31;4934315;28;45523;-69
2023/09/30 01:53:28;;;;;;;;;5.00;5.00;;;;;17.17;59.76;102136.19;4948966;28;45573;-68
2023/09/30 01:55:53;;;;;;;;;4.33;4.33;;;;;17.17;59.88;102135.34;4947340;28;46517;-69
2023/09/30 01:58:19;;;;;;;;;6.00;5.00;;;;;17.25;59.62;102149.75;4950235;28;46764;-69
2023/09/30 02:00:45;;;;;;;;;5.00;3.67;;;;;17.24;60.01;102148.06;4949257;28;45418;-69
2023/09/30 02:03:11;;;;;;;;;6.00;4.00;;;;;17.18;60.37;102139.72;4949853;28;45518;-69
2023/09/30 02:05:38;;;;;;;;;6.00;4.00;;;;;17.10;60.58;102131.59;4948336;28;45582;-67
2023/09/30 02:08:05;;;;;;;;;4.33;3.00;;;;;17.11;60.28;102133.28;4946142;28;45398;-68
2023/09/30 02:10:31;;;;;;;;;5.67;4.00;;;;;17.09;60.28;102129.91;4943229;28;45476;-68
2023/09/30 02:12:56;;;;;;;;;5.75;4.75;;;;;17.13;60.08;102134.81;4946330;28;45497;-69
2023/09/30 02:15:21;;;;;;;;;5.00;3.75;;;;;17.21;60.16;102137.56;4942477;28;46197;-68
2023/09/30 02:17:48;;;;;;;;;5.25;5.00;;;;;17.17;59.98;102129.97;4948816;28;45392;-69
2023/09/30 02:20:18;;;;;;;;;4.33;3.00;;;;;17.26;59.73;102150.59;4949357;28;45405;-69
2023/09/30 02:22:44;;;;;;;;;2.00;2.00;;;;;17.20;59.81;102135.03;4923781;28;45508;-68
2023/09/30 02:25:11;;;;;;;;;2.75;2.75;;;;;17.24;59.54;102152.59;4949096;28;46607;-68
2023/09/30 02:27:37;;;;;;;;;5.25;5.00;;;;;17.17;59.88;102140.72;4948892;28;45583;-68
2023/09/30 02:30:03;;;;;;;;;4.25;4.00;;;;;17.21;60.39;102151.00;4939185;28;45409;-68
2023/09/30 02:32:28;;;;;;;;;3.67;3.33;;;;;16.93;60.16;102125.22;4949935;28;45272;-69
2023/09/30 02:34:53;;;;;;;;;2.75;2.75;;;;;17.11;60.04;102146.72;4944563;28;73148;-67
2023/09/30 02:37:19;;;;;;;;;4.00;3.33;;;;;17.12;60.25;102133.13;4949200;28;52545;-68
2023/09/30 02:39:44;;;;;;;;;5.00;4.00;;;;;16.63;60.30;102043.13;4947092;28;45442;-68
2023/09/30 02:42:10;;;;;;;;;3.75;3.00;;;;;17.19;60.06;102144.94;4952961;28;45462;-68
2023/09/30 02:44:35;;;;;;;;;4.75;3.75;;;;;17.10;60.34;102124.38;4945537;28;46131;-68
2023/09/30 02:47:01;;;;;;;;;5.67;5.33;;;;;16.85;60.38;102066.88;4956260;28;45339;-68
2023/09/30 02:49:26;;;;;;;;;2.50;2.00;;;;;17.20;60.75;102126.97;4942867;28;48136;-67
2023/09/30 02:51:51;;;;;;;;;2.67;2.00;;;;;17.15;60.35;102123.91;4949516;28;45498;-67
2023/09/30 02:54:17;;;;;;;;;4.33;3.00;;;;;17.08;60.45;102125.53;4945256;28;58519;-68
2023/09/30 02:56:42;;;;;;;;;3.75;3.50;;;;;17.14;60.51;102146.41;4951634;28;45426;-68
2023/09/30 02:59:08;;;;;;;;;5.00;3.00;;;;;17.08;60.65;102152.41;4946279;28;45414;-68
2023/09/30 03:01:34;;;;;;;;;4.00;4.00;;;;;17.03;60.80;102151.03;4952248;28;45415;-68
2023/09/30 03:03:59;;;;;;;;;4.00;3.00;;;;;16.99;60.74;102167.59;4947362;28;47325;-67
2023/09/30 03:06:25;;;;;;;;;3.67;3.00;;;;;16.88;60.78;102155.22;4951245;28;45320;-67
2023/09/30 03:08:51;;;;;;;;;5.50;3.00;;;;;16.99;60.78;102164.91;4948866;28;45576;-70
2023/09/30 03:11:17;;;;;;;;;6.00;3.00;;;;;17.03;60.83;102169.84;4950482;28;45632;-68
2023/09/30 03:13:42;;;;;;;;;6.25;3.75;;;;;17.08;60.80;102163.16;4943763;28;46571;-68
2023/09/30 03:16:09;;;;;;;;;3.00;3.00;;;;;17.05;60.73;102169.69;4948208;28;45579;-69
2023/09/30 03:18:34;;;;;;;;;4.00;4.00;;;;;17.09;60.59;102164.84;4944755;28;45563;-69
2023/09/30 03:21:01;;;;;;;;;4.00;2.75;;;;;17.06;60.76;102160.63;4951521;28;45462;-76
2023/09/30 03:23:32;;;;;;;;;5.67;4.00;;;;;17.13;60.44;102163.53;4945389;28;45925;-69
2023/09/30 03:25:58;;;;;;;;;4.33;4.33;;;;;17.14;60.67;102168.75;4944830;28;45545;-69
2023/09/30 03:28:24;;;;;;;;;3.25;3.25;;;;;17.17;60.52;102184.56;4948044;28;45319;-69
2023/09/30 03:30:49;;;;;;;;;4.00;4.00;;;;;17.18;60.57;102183.56;4949288;28;45228;-68
2023/09/30 03:33:15;;;;;;;;;5.00;5.00;;;;;17.13;60.55;102180.50;4948044;28;45756;-68
2023/09/30 03:35:41;;;;;;;;;9.33;4.67;;;;;17.12;60.72;102186.88;4946938;28;49315;-69
2023/09/30 03:38:09;;;;;;;;;2.33;2.33;;;;;17.10;60.78;102177.28;4949863;28;45465;-69
2023/09/30 03:40:38;;;;;;;;;2.50;2.50;;;;;17.11;60.86;102178.97;4947594;28;45464;-67
2023/09/30 03:43:05;;;;;;;;;6.00;5.00;;;;;17.03;60.40;102182.44;4954235;28;45638;-67
2023/09/30 03:45:32;;;;;;;;;5.75;4.00;;;;;17.02;60.50;102176.22;4948865;28;45367;-67
2023/09/30 03:47:58;;;;;;;;;4.75;2.50;;;;;17.07;60.79;102186.50;4955775;28;45520;-69
2023/09/30 03:50:24;;;;;;;;;4.50;3.00;;;;;17.15;60.46;102188.41;4948839;28;45417;-68
2023/09/30 03:52:49;;;;;;;;;3.25;3.25;;;;;16.33;60.79;102050.50;4955318;28;46622;-67
2023/09/30 03:55:17;;;;;;;;;2.75;2.75;;;;;16.95;60.82;102158.13;4948651;28;45501;-68
2023/09/30 03:57:47;;;;;;;;;6.33;5.00;;;;;17.13;61.00;102177.81;4949600;28;45498;-69
2023/09/30 04:00:16;;;;;;;;;3.00;3.00;;;;;16.99;60.73;102171.13;4947982;28;45573;-69
2023/09/30 04:02:42;;;;;;;;;4.75;2.75;;;;;16.59;61.33;102098.94;4948352;28;46109;-68
2023/09/30 04:05:11;;;;;;;;;6.00;3.33;;;;;16.98;61.55;102168.59;4950418;28;45356;-69
2023/09/30 04:07:36;;;;;;;;;5.67;3.00;;;;;16.98;61.10;102164.06;4942097;28;45463;-68
2023/09/30 04:10:02;;;;;;;;;3.00;3.00;;;;;16.97;60.96;102156.16;4941825;28;45422;-69
2023/09/30 04:12:28;;;;;;;;;6.67;5.00;;;;;16.99;61.42;102143.41;4949158;28;45579;-69
2023/09/30 04:14:53;;;;;;;;;5.67;5.33;;;;;16.95;61.29;102125.91;4930628;28;45438;-69
2023/09/30 04:17:19;;;;;;;;;6.75;6.25;;;;;16.90;61.35;102130.91;4949493;28;45300;-68
2023/09/30 04:19:45;;;;;;;;;7.25;5.00;;;;;16.87;61.53;102131.19;4948075;28;51642;-69
2023/09/30 04:22:11;;;;;;;;;3.50;3.25;;;;;16.87;61.52;102123.16;4955266;28;45748;-68
2023/09/30 04:24:36;;;;;;;;;4.25;4.25;;;;;16.81;61.83;102116.50;4938745;28;49778;-69
2023/09/30 04:27:04;;;;;;;;;6.25;5.00;;;;;16.73;62.07;102106.53;4949632;28;46590;-69
2023/09/30 04:29:29;;;;;;;;;4.67;3.33;;;;;16.74;62.09;102126.19;4931001;28;45637;-68
2023/09/30 04:31:56;;;;;;;;;6.75;5.50;;;;;16.77;62.18;102108.91;4952905;28;46787;-69
2023/09/30 04:34:21;;;;;;;;;7.00;4.33;;;;;16.62;62.11;102090.63;4949645;28;45830;-68
2023/09/30 04:36:47;;;;;;;;;5.00;4.00;;;;;16.66;62.30;102110.84;4951887;28;45811;-69
2023/09/30 04:39:13;;;;;;;;;5.00;4.33;;;;;16.65;62.50;102109.13;4951361;28;45493;-68
2023/09/30 04:41:41;;;;;;;;;6.00;5.33;;;;;16.54;62.73;102103.94;4944347;28;47118;-67
2023/09/30 04:44:09;;;;;;;;;4.00;4.00;;;;;16.53;62.51;102110.28;4950605;28;45220;-68
2023/09/30 04:46:35;;;;;;;;;8.67;6.33;;;;;16.53;62.62;102126.41;4945187;28;45496;-69
2023/09/30 04:49:02;;;;;;;;;8.00;5.67;;;;;16.40;62.93;102120.53;4947635;28;45525;-68
2023/09/30 04:51:28;;;;;;;;;6.67;5.00;;;;;16.11;62.89;102094.66;4950200;28;46823;-70
2023/09/30 04:53:54;;;;;;;;;4.67;3.67;;;;;16.54;62.76;102154.94;4949476;28;45436;-68
2023/09/30 04:56:20;;;;;;;;;2.00;2.00;;;;;16.35;62.68;102109.41;4956573;28;45438;-68
2023/09/30 04:58:46;;;;;;;;;6.00;3.00;;;;;16.63;62.25;102159.44;4949642;28;53403;-68
2023/09/30 05:01:12;;;;;;;;;3.67;3.67;;;;;16.30;62.45;102098.28;4954820;28;46691;-68
2023/09/30 05:03:37;;;;;;;;;7.33;4.33;;;;;16.40;62.35;102113.31;4947586;28;45272;-69
2023/09/30 05:06:03;;;;;;;;;4.67;4.67;;;;;16.60;62.43;102156.19;4955910;28;45600;-68
2023/09/30 05:08:29;;;;;;;;;5.00;5.00;;;;;16.51;62.47;102139.13;4950557;28;45526;-69
2023/09/30 05:10:57;;;;;;;;;5.00;2.67;;;;;16.61;62.65;102141.75;4949400;28;46587;-69
2023/09/30 05:13:23;;;;;;;;;3.33;3.33;;;;;16.59;62.47;102141.91;4950397;28;45338;-68
2023/09/30 05:15:50;;;;;;;;;6.33;6.33;;;;;16.51;62.61;102141.81;4950419;28;45499;-68
2023/09/30 05:18:15;;;;;;;;;6.67;5.00;;;;;16.49;63.03;102140.28;4942133;28;45395;-68
2023/09/30 05:20:40;;;;;;;;;3.33;3.33;;;;;16.49;62.78;102141.13;4958656;28;47676;-68
2023/09/30 05:23:07;;;;;;;;;4.67;4.67;;;;;16.47;63.35;102142.28;4949169;28;45465;-68
2023/09/30 05:25:32;;;;;;;;;7.00;6.00;;;;;16.38;63.16;102144.84;4951162;28;45470;-68
2023/09/30 05:27:57;;;;;;;;;3.00;3.00;;;;;16.36;63.47;102140.59;4950940;28;45248;-68
2023/09/30 05:30:23;;;;;;;;;6.33;5.00;;;;;16.38;63.36;102144.00;4947678;28;46465;-69
2023/09/30 05:32:48;;;;;;;;;7.67;5.33;;;;;16.36;63.37;102157.56;4947543;28;45425;-68
2023/09/30 05:35:16;;;;;;;;;4.25;4.25;;;;;16.38;63.49;102166.31;4947317;28;45237;-68
2023/09/30 05:37:43;;;;;;;;;8.67;4.00;;;;;16.20;63.44;102151.13;4950019;28;45468;-69
2023/09/30 05:40:20;;;;;;;;;3.00;3.00;;;;;16.25;63.60;102155.06;4943271;28;46067;-70
2023/09/30 05:42:45;;;;;;;;;7.33;6.00;;;;;16.32;63.33;102171.44;4942543;28;45417;-68
2023/09/30 05:45:13;;;;;;;;;6.00;5.00;;;;;16.35;63.58;102171.13;4950237;28;45545;-69
2023/09/30 05:47:40;;;;;;;;;3.00;3.00;;;;;16.44;63.29;102183.69;4949953;28;45497;-68
2023/09/30 05:50:07;;;;;;;;;3.67;2.67;;;;;16.44;63.30;102178.31;4940476;28;48109;-67
2023/09/30 05:52:32;;;;;;;;;5.33;4.00;;;;;16.34;63.04;102148.81;4948706;28;45367;-68
2023/09/30 05:54:57;;;;;;;;;3.67;3.67;;;;;16.38;63.24;102160.94;4946453;28;45792;-69
2023/09/30 05:57:23;;;;;;;;;2.00;2.00;;;;;16.39;63.49;102148.38;4949179;28;45427;-72
2023/09/30 05:59:49;;;;;;;;;8.33;5.33;;;;;16.07;63.02;102079.03;4946545;28;45451;-69
2023/09/30 06:02:15;;;;;;;;;5.00;3.67;;;;;16.52;63.23;102148.88;4948682;28;45552;-68
2023/09/30 06:04:40;;;;;;;;;5.00;5.00;;;;;16.53;62.95;102144.34;4946412;28;45445;-69
2023/09/30 06:07:06;;;;;;;;;7.00;5.00;;;;;16.58;63.16;102158.16;4948534;28;45350;-69
2023/09/30 06:09:31;;;;;;;;;5.00;4.67;;;;;16.61;62.45;102150.66;4945461;28;45769;-68
2023/09/30 06:11:56;;;;;;;;;3.50;3.50;;;;;16.59;62.84;102147.28;4948341;28;48645;-68
2023/09/30 06:14:22;;;;;;;;;9.75;4.50;;;;;16.62;62.59;102163.13;4951976;28;45505;-69
2023/09/30 06:16:47;;;;;;;;;4.67;4.00;;;;;16.70;62.11;102155.19;4951129;28;45296;-68
2023/09/30 06:19:13;;;;;;;;;4.25;2.75;;;;;16.65;62.14;102144.03;4942344;28;47342;-69
2023/09/30 06:21:39;;;;;;;;;6.50;4.25;;;;;16.73;62.57;102144.13;4944797;28;45374;-70
2023/09/30 06:24:05;;;;;;;;;7.33;5.00;;;;;16.74;61.92;102147.66;4948339;28;45515;-69
2023/09/30 06:26:30;;;;;;;;;5.75;2.50;;;;;16.70;62.02;102160.56;4957161;28;45466;-68
2023/09/30 06:28:56;;;;;;;;;7.25;4.00;;;;;16.68;62.10;102145.59;4940583;28;46118;-69
2023/09/30 06:31:22;;;;;;;;;5.25;3.25;;;;;16.80;61.93;102157.78;4945323;28;45503;-68
2023/09/30 06:33:48;;;;;;;;;2.00;2.00;;;;;16.78;62.45;102156.25;4946121;28;45357;-69
2023/09/30 06:36:14;;;;;;;;;5.00;5.00;;;;;16.68;62.05;102151.81;4948716;28;45538;-69
2023/09/30 06:38:41;;;;;;;;;4.50;3.25;;;;;16.88;62.19;102183.94;4938124;28;45884;-68
2023/09/30 06:41:07;;;;;;;;;10.33;6.67;;;;;16.99;61.99;102179.19;4948077;28;45608;-68
2023/09/30 06:43:34;;;;;;;;;6.33;6.33;;;;;16.72;61.27;102120.97;4949251;28;45350;-69
2023/09/30 06:46:07;;;;;;;;;4.00;3.00;;;;;16.89;61.27;102137.25;4951186;28;45438;-68
2023/09/30 06:48:32;;;;;;;;;6.00;5.00;;;;;17.09;60.97;102154.94;4949202;28;47150;-69
2023/09/30 06:50:58;;;;;;;;;5.50;5.00;;;;;17.26;60.40;102178.31;4947820;28;45267;-68
2023/09/30 06:53:24;;;;;;;;;6.00;4.50;;;;;17.18;60.81;102151.31;4948802;28;45497;-69
2023/09/30 06:55:51;;;;;;;;;8.50;5.25;;;;;17.24;60.64;102158.81;4940179;28;45555;-68
2023/09/30 06:58:20;;;;;;;;;6.00;4.67;;;;;17.22;60.29;102141.09;4946488;28;46870;-69
2023/09/30 07:00:46;;;;;;;;;6.50;5.25;;;;;17.54;60.06;102183.59;4946506;28;45276;-68
2023/09/30 07:03:11;;;;;;;;;6.00;4.00;;;;;17.43;60.21;102156.97;4946112;28;45339;-70
2023/09/30 07:05:37;;;;;;;;;2.00;1.50;;;;;17.62;59.82;102172.94;4940398;28;45362;-71
2023/09/30 07:08:02;;;;;;;;;4.25;4.25;;;;;17.62;59.98;102167.56;4955228;28;47958;-69
2023/09/30 07:10:31;;;;;;;;;7.75;3.75;;;;;17.26;59.90;102105.72;4952514;28;45513;-69
2023/09/30 07:12:57;;;;;;;;;6.75;4.50;;;;;17.69;59.96;102174.00;4955911;28;45553;-68
2023/09/30 07:15:22;;;;;;;;;4.25;3.00;;;;;17.86;59.67;102183.91;4949295;28;45544;-67
2023/09/30 07:17:47;;;;;;;;;5.50;5.00;;;;;17.94;59.00;102177.72;4948933;28;46414;-70
2023/09/30 07:20:13;;;;;;;;;5.67;4.33;;;;;18.14;58.87;102175.69;4956154;28;45366;-69
2023/09/30 07:22:39;;;;;;;;;8.67;6.00;;;;;18.35;58.08;102178.00;4949145;28;45482;-69
2023/09/30 07:25:05;;;;;;;;;6.00;5.33;;;;;18.72;57.76;102183.09;4942657;28;45544;-69
2023/09/30 07:27:30;;;;;;;;;6.33;4.67;;;;;19.01;56.71;102178.13;4949180;28;46587;-69
2023/09/30 07:29:55;;;;;;;;;6.33;5.33;;;;;18.84;56.09;102111.72;4953233;28;45572;-69
2023/09/30 07:32:24;;;;;;;;;8.00;6.25;;;;;19.53;55.04;102180.56;4951550;28;45404;-69
2023/09/30 07:34:50;;;;;;;;;8.00;5.00;;;;;19.35;55.04;102150.22;4952961;28;45478;-69
2023/09/30 07:37:17;;;;;;;;;6.00;5.00;;;;;19.51;54.67;102155.63;4951298;28;45654;-69
2023/09/30 07:39:43;;;;;;;;;8.00;8.00;;;;;19.83;54.18;102176.41;4950992;28;45383;-68
2023/09/30 07:42:11;;;;;;;;;7.00;5.00;;;;;19.79;54.06;102155.28;4952113;28;45296;-68
2023/09/30 07:44:37;;;;;;;;;8.67;7.00;;;;;19.85;53.52;102162.72;4945460;28;45344;-69
2023/09/30 07:47:03;;;;;;;;;9.00;6.67;;;;;19.74;54.02;102162.06;4947198;28;46412;-70
2023/09/30 07:49:29;;;;;;;;;6.75;4.00;;;;;19.78;53.55;102164.41;4930820;28;46126;-69
2023/09/30 07:51:54;;;;;;;;;6.25;6.00;;;;;19.69;54.12;102177.91;4951783;28;45398;-70
2023/09/30 07:54:20;;;;;;;;;8.00;5.00;;;;;19.52;54.91;102175.34;4954330;28;45274;-69
2023/09/30 07:56:46;;;;;;;;;7.00;5.00;;;;;19.51;54.75;102187.16;4949827;28;46866;-69
2023/09/30 07:59:11;;;;;;;;;4.25;3.50;;;;;19.37;55.04;102172.47;4948258;28;45429;-69
2023/09/30 08:01:37;;;;;;;;;6.33;5.67;;;;;19.37;55.24;102177.84;4951781;28;45335;-68
2023/09/30 08:04:02;;;;;;;;;4.00;4.00;;;;;19.37;55.59;102189.47;4931984;28;45450;-68
2023/09/30 08:06:28;;;;;;;;;5.00;4.00;;;;;19.42;55.15;102187.16;4950090;28;47099;-69
2023/09/30 08:08:55;;;;;;;;;6.00;5.33;;;;;19.30;54.83;102161.50;4947936;28;45350;-69
2023/09/30 08:11:20;;;;;;;;;3.33;3.00;;;;;19.54;54.91;102190.38;4949218;28;45541;-68
2023/09/30 08:13:46;;;;;;;;;8.00;5.00;;;;;19.70;54.51;102206.59;4940831;28;45443;-69
2023/09/30 08:16:11;;;;;;;;;5.00;3.67;;;;;19.38;54.47;102139.09;4950421;28;46499;-68
2023/09/30 08:18:37;;;;;;;;;5.75;4.75;;;;;19.79;54.47;102204.72;4942729;28;45436;-69
2023/09/30 08:21:02;;;;;;;;;5.75;4.25;;;;;19.86;54.00;102194.09;4947337;28;52698;-69
2023/09/30 08:23:27;;;;;;;;;3.25;2.25;;;;;19.92;53.91;102199.66;4934073;28;45531;-69
2023/09/30 08:25:54;;;;;;;;;3.00;3.00;;;;;19.71;53.78;102143.50;4947775;28;45531;-68
2023/09/30 08:28:19;;;;;;;;;4.75;4.75;;;;;20.33;53.30;102208.53;4939264;28;45331;-69
2023/09/30 08:30:46;;;;;;;;;5.75;4.50;;;;;20.60;52.32;102209.16;4948401;28;45237;-73
2023/09/30 08:33:11;;;;;;;;;6.25;5.25;;;;;20.86;51.50;102209.75;4948129;28;45452;-71
2023/09/30 08:35:40;;;;;;;;;5.00;4.67;;;;;20.99;51.63;102208.31;4947341;28;55529;-69
2023/09/30 08:38:05;;;;;;;;;8.00;6.00;;;;;21.21;50.73;102211.06;4948985;28;45576;-68
2023/09/30 08:40:31;;;;;;;;;6.67;5.33;;;;;21.50;49.50;102196.03;4950581;28;45534;-68
2023/09/30 08:42:57;;;;;;;;;6.67;5.67;;;;;21.81;49.23;102199.50;4950689;28;45462;-69
2023/09/30 08:45:23;;;;;;;;;4.67;4.67;;;;;22.01;48.91;102190.84;4937249;28;47677;-68
2023/09/30 08:47:50;;;;;;;;;11.67;7.33;;;;;22.29;47.72;102185.69;4946722;28;45888;-69
2023/09/30 08:50:16;;;;;;;;;5.00;5.00;;;;;22.50;47.81;102212.91;4947294;28;45578;-69
2023/09/30 08:52:44;;;;;;;;;8.00;7.00;;;;;22.47;47.51;102205.16;4945733;28;45291;-68
2023/09/30 08:55:10;;;;;;;;;8.00;7.00;;;;;22.50;47.46;102215.59;4948079;28;46008;-68
2023/09/30 08:57:41;;;;;;;;;7.33;4.00;;;;;22.32;47.13;102221.38;4938365;28;45740;-68
2023/09/30 09:00:12;;;;;;;;;6.25;5.00;;;;;21.98;47.18;102193.94;4946833;28;45368;-69
2023/09/30 09:02:38;;;;;;;;;7.00;5.33;;;;;21.78;47.62;102177.34;4947533;28;45264;-68
2023/09/30 09:05:04;;;;;;;;;5.67;5.00;;;;;21.84;47.95;102219.97;4947366;28;45873;-69
2023/09/30 09:07:30;;;;;;;;;6.33;5.00;;;;;21.78;48.23;102237.75;4949873;28;45431;-68
2023/09/30 09:10:15;;;;;;;;;5.67;5.67;;;;;21.73;48.44;102220.38;4950590;28;45491;-68
2023/09/30 09:12:41;;;;;;;;;7.00;5.50;;;;;21.63;48.04;102214.38;4950770;28;45261;-69
2023/09/30 09:15:19;;;;;;;;;4.75;4.75;;;;;21.72;48.17;102226.81;4949128;28;45817;-68
2023/09/30 09:17:45;;;;;;;;;7.50;5.25;;;;;21.79;48.29;102225.06;4936174;28;45399;-68
2023/09/30 09:20:21;;;;;;;;;7.00;4.00;;;;;21.79;47.93;102216.94;4938468;28;45360;-69
2023/09/30 09:22:53;;;;;;;;;5.00;4.00;;;;;21.71;48.32;102217.03;4929946;28;45571;-68
2023/09/30 09:25:19;;;;;;;;;5.75;3.75;;;;;21.78;48.51;102194.44;4946637;28;45607;-68
2023/09/30 09:27:45;;;;;;;;;5.75;4.75;;;;;21.88;47.82;102191.50;4939658;28;45540;-69
2023/09/30 09:30:29;;;;;;;;;6.75;5.00;;;;;22.25;47.79;102195.22;4946262;28;45392;-68
2023/09/30 09:33:05;;;;;;;;;6.67;5.67;;;;;22.87;47.35;102195.69;4944620;28;45486;-68
2023/09/30 09:35:33;;;;;;;;;7.50;7.00;;;;;23.42;46.16;102193.38;4956049;28;48003;-68
2023/09/30 09:38:06;;;;;;;;;6.33;5.33;;;;;23.86;45.59;102206.78;4932662;28;45896;-68
2023/09/30 09:40:33;;;;;;;;;7.75;7.25;;;;;24.20;44.41;102197.81;4949422;28;45394;-69
2023/09/30 09:43:02;;;;;;;;;4.50;4.50;;;;;24.47;43.83;102199.72;4949905;28;45356;-68
2023/09/30 09:45:30;;;;;;;;;9.50;5.75;;;;;24.67;43.40;102226.19;4939161;28;45803;-68
2023/09/30 09:47:57;;;;;;;;;8.50;6.00;;;;;24.64;43.11;102226.59;4946769;28;46873;-68
2023/09/30 09:50:23;;;;;;;;;9.00;6.25;;;;;24.54;43.64;102216.91;4937285;28;45800;-68
2023/09/30 09:52:54;;;;;;;;;8.33;5.67;;;;;24.31;44.15;102202.75;4939778;28;45442;-68
2023/09/30 09:55:23;;;;;;;;;10.00;6.33;;;;;24.32;44.11;102223.44;4946852;28;46709;-69
2023/09/30 09:57:49;;;;;;;;;7.67;6.33;;;;;24.12;43.98;102206.13;4948946;28;45485;-69
2023/09/30 10:00:20;;;;;;;;;9.00;7.00;;;;;23.80;44.18;102173.06;4956542;28;45157;-68
2023/09/30 10:02:46;;;;;;;;;7.00;6.00;;;;;23.95;44.51;102225.44;4945942;28;45594;-68
2023/09/30 10:05:13;;;;;;;;;9.00;5.33;;;;;23.66;44.78;102193.88;4945763;28;45577;-69
2023/09/30 10:07:45;;;;;;;;;10.67;6.67;;;;;23.67;45.26;102214.56;4946216;28;45455;-69
2023/09/30 10:10:18;;;;;;;;;9.33;6.67;;;;;23.27;45.29;102174.44;4945836;28;45486;-69
2023/09/30 10:12:44;;;;;;;;;7.67;7.00;;;;;23.37;46.33;102186.66;4946083;28;45489;-69
2023/09/30 10:15:24;;;;;;;;;11.00;7.75;;;;;23.30;45.79;102180.31;4945571;28;45667;-69
2023/09/30 10:18:03;;;;;;;;;9.00;7.00;;;;;23.32;45.90;102183.69;4951496;28;45445;-69
2023/09/30 10:20:36;;;;;;;;;7.00;7.00;;;;;23.28;46.10;102174.25;4954378;28;45414;-68
2023/09/30 10:23:16;;;;;;;;;10.00;8.00;;;;;23.27;46.04;102190.72;4934804;28;45545;-68
2023/09/30 10:25:47;;;;;;;;;8.75;7.50;;;;;23.23;46.12;102194.88;4939129;28;46694;-69
2023/09/30 10:28:41;;;;;;;;;8.50;8.50;;;;;23.01;46.22;102188.53;4921042;28;45327;-69
2023/09/30 10:31:19;;;;;;;;;9.00;9.00;;;;;22.86;46.65;102182.34;4951811;28;45370;-68
2023/09/30 10:34:02;;;;;;;;;10.33;8.00;;;;;22.77;46.51;102189.69;4948244;28;45624;-68
2023/09/30 10:36:37;;;;;;;;;9.75;7.50;;;;;22.71;46.84;102183.16;4954792;28;45816;-69
2023/09/30 10:39:03;;;;;;;;;12.33;10.33;;;;;22.66;46.91;102173.91;4944149;28;45398;-70
2023/09/30 10:41:48;;;;;;;;;8.00;7.00;;;;;22.61;47.13;102174.47;4946526;28;45494;-69
2023/09/30 10:44:25;;;;;;;;;7.00;7.00;;;;;22.75;46.91;102170.06;4943213;28;45414;-68
2023/09/30 10:46:59;;;;;;;;;10.00;10.00;;;;;22.78;47.04;102170.50;4953337;28;46560;-69
2023/09/30 10:49:25;;;;;;;;;11.25;10.00;;;;;22.90;46.97;102178.19;4944689;28;45579;-72
2023/09/30 10:51:51;;;;;;;;;8.33;8.33;;;;;22.85;46.33;102158.97;4945909;28;45240;-69
2023/09/30 10:54:23;;;;;;;;;7.00;5.75;;;;;23.04;45.61;102174.63;4943373;28;45367;-67
2023/09/30 10:56:48;;;;;;;;;9.67;9.33;;;;;22.95;45.69;102154.06;4945989;28;45781;-69
2023/09/30 10:59:22;;;;;;;;;11.00;7.00;;;;;23.04;44.93;102169.19;4934242;28;45449;-69
2023/09/30 11:01:48;;;;;;;;;8.75;7.50;;;;;22.83;45.08;102178.13;4942366;28;45419;-69
2023/09/30 11:04:15;;;;;;;;;17.67;16.67;;;;;22.84;45.48;102173.56;4946086;28;45471;-69
2023/09/30 11:06:41;;;;;;;;;8.00;8.00;;;;;22.86;44.91;102155.22;4937828;28;47610;-70
2023/09/30 11:09:13;;;;;;;;;11.00;5.50;;;;;22.54;45.15;102105.78;4926393;28;45326;-69
2023/09/30 11:11:44;;;;;;;;;15.33;14.00;;;;;22.80;45.42;102158.63;4935452;28;45303;-68
2023/09/30 11:14:32;;;;;;;;;9.50;8.25;;;;;22.84;44.97;102154.56;4942782;28;45376;-69
2023/09/30 11:16:59;;;;;;;;;9.75;7.00;;;;;22.80;45.43;102147.78;4941027;28;46745;-69
2023/09/30 11:19:26;;;;;;;;;8.75;6.00;;;;;22.72;45.22;102133.31;4941812;28;45523;-68
2023/09/30 11:21:54;;;;;;;;;7.00;5.75;;;;;22.76;45.40;102147.34;4946437;28;45466;-69
2023/09/30 11:24:20;;;;;;;;;7.33;6.67;;;;;22.70;45.42;102150.81;4938343;28;45181;-68